sensor_id;sensor_type;location;lat;lon;timestamp;temperature;humidity
52531;DHT22;38441;52.894;6.040;2023-09-19T00:01:40;14.60;99.90
52531;DHT22;38441;52.894;6.040;2023-09-19T00:04:07;14.90;99.90
52531;DHT22;38441;52.894;6.040;2023-09-19T00:06:38;14.70;99.90
52531;DHT22;38441;52.894;6.040;2023-09-19T00:09:05;14.70;99.90
52531;DHT22;38441;52.894;6.040;2023-09-19T00:11:30;14.40;99.90
52531;DHT22;38441;52.894;6.040;2023-09-19T00:13:57;14.60;99.90
52531;DHT22;38441;52.894;6.040;2023-09-19T00:16:24;14.60;99.90
52531;DHT22;38441;52.894;6.040;2023-09-19T00:18:51;14.60;99.90
52531;DHT22;38441;52.894;6.040;2023-09-19T00:21:16;14.50;99.90
52531;DHT22;38441;52.894;6.040;2023-09-19T00:23:42;14.50;99.90
52531;DHT22;38441;52.894;6.040;2023-09-19T00:26:08;14.30;99.90
52531;DHT22;38441;52.894;6.040;2023-09-19T00:28:33;14.30;99.90
52531;DHT22;38441;52.894;6.040;2023-09-19T00:30:59;14.40;99.90
52531;DHT22;38441;52.894;6.040;2023-09-19T00:33:28;14.40;99.90
52531;DHT22;38441;52.894;6.040;2023-09-19T00:35:57;14.20;99.90
52531;DHT22;38441;52.894;6.040;2023-09-19T00:38:27;14.20;99.90
52531;DHT22;38441;52.894;6.040;2023-09-19T00:40:54;14.20;99.90
52531;DHT22;38441;52.894;6.040;2023-09-19T00:43:20;14.30;99.90
52531;DHT22;38441;52.894;6.040;2023-09-19T00:45:51;14.30;99.90
52531;DHT22;38441;52.894;6.040;2023-09-19T00:48:17;14.20;99.90
52531;DHT22;38441;52.894;6.040;2023-09-19T00:50:45;14.10;99.90
52531;DHT22;38441;52.894;6.040;2023-09-19T00:53:15;14.10;99.90
52531;DHT22;38441;52.894;6.040;2023-09-19T00:55:44;14.10;99.90
52531;DHT22;38441;52.894;6.040;2023-09-19T00:58:11;14.10;99.90
52531;DHT22;38441;52.894;6.040;2023-09-19T01:00:37;14.10;99.90
52531;DHT22;38441;52.894;6.040;2023-09-19T01:03:03;14.20;99.90
52531;DHT22;38441;52.894;6.040;2023-09-19T01:05:29;14.10;99.90
52531;DHT22;38441;52.894;6.040;2023-09-19T01:07:55;14.10;99.90
52531;DHT22;38441;52.894;6.040;2023-09-19T01:10:22;14.10;99.90
52531;DHT22;38441;52.894;6.040;2023-09-19T01:29:49;14.10;99.90
52531;DHT22;38441;52.894;6.040;2023-09-19T01:32:24;14.00;99.90
52531;DHT22;38441;52.894;6.040;2023-09-19T01:34:54;14.00;99.90
52531;DHT22;38441;52.894;6.040;2023-09-19T01:37:22;13.80;99.90
52531;DHT22;38441;52.894;6.040;2023-09-19T01:39:56;13.90;99.90
52531;DHT22;38441;52.894;6.040;2023-09-19T01:42:43;13.80;99.90
52531;DHT22;38441;52.894;6.040;2023-09-19T01:45:20;13.80;99.90
52531;DHT22;38441;52.894;6.040;2023-09-19T01:47:53;13.80;99.90
52531;DHT22;38441;52.894;6.040;2023-09-19T01:50:42;13.90;99.90
52531;DHT22;38441;52.894;6.040;2023-09-19T01:53:30;13.80;99.90
52531;DHT22;38441;52.894;6.040;2023-09-19T01:55:59;13.90;99.90
52531;DHT22;38441;52.894;6.040;2023-09-19T01:58:37;13.80;99.90
52531;DHT22;38441;52.894;6.040;2023-09-19T02:01:05;13.90;99.90
52531;DHT22;38441;52.894;6.040;2023-09-19T02:03:34;13.80;99.90
52531;DHT22;38441;52.894;6.040;2023-09-19T02:06:00;13.80;99.90
52531;DHT22;38441;52.894;6.040;2023-09-19T02:08:26;13.80;99.90
52531;DHT22;38441;52.894;6.040;2023-09-19T02:10:52;13.80;99.90
52531;DHT22;38441;52.894;6.040;2023-09-19T02:13:22;13.90;99.90
52531;DHT22;38441;52.894;6.040;2023-09-19T02:15:53;13.90;99.90
52531;DHT22;38441;52.894;6.040;2023-09-19T02:18:19;13.80;99.90
52531;DHT22;38441;52.894;6.040;2023-09-19T02:20:45;13.90;99.90
52531;DHT22;38441;52.894;6.040;2023-09-19T02:23:12;13.80;99.90
52531;DHT22;38441;52.894;6.040;2023-09-19T02:25:38;13.90;99.90
52531;DHT22;38441;52.894;6.040;2023-09-19T02:28:04;13.80;99.90
52531;DHT22;38441;52.894;6.040;2023-09-19T02:30:31;13.90;99.90
52531;DHT22;38441;52.894;6.040;2023-09-19T02:32:56;13.70;99.90
52531;DHT22;38441;52.894;6.040;2023-09-19T02:35:22;13.80;99.90
52531;DHT22;38441;52.894;6.040;2023-09-19T02:37:48;13.80;99.90
52531;DHT22;38441;52.894;6.040;2023-09-19T02:40:15;13.70;99.90
52531;DHT22;38441;52.894;6.040;2023-09-19T02:42:54;13.80;99.90
52531;DHT22;38441;52.894;6.040;2023-09-19T02:45:20;13.70;99.90
52531;DHT22;38441;52.894;6.040;2023-09-19T02:47:46;13.70;99.90
52531;DHT22;38441;52.894;6.040;2023-09-19T02:50:13;13.80;99.90
52531;DHT22;38441;52.894;6.040;2023-09-19T02:52:45;13.70;99.90
52531;DHT22;38441;52.894;6.040;2023-09-19T02:55:17;13.80;99.90
52531;DHT22;38441;52.894;6.040;2023-09-19T02:57:52;13.80;99.90
52531;DHT22;38441;52.894;6.040;2023-09-19T03:00:19;13.70;99.90
52531;DHT22;38441;52.894;6.040;2023-09-19T03:02:54;13.70;99.90
52531;DHT22;38441;52.894;6.040;2023-09-19T03:05:21;13.70;99.90
52531;DHT22;38441;52.894;6.040;2023-09-19T03:07:47;13.80;99.90
52531;DHT22;38441;52.894;6.040;2023-09-19T03:10:20;13.80;99.90
52531;DHT22;38441;52.894;6.040;2023-09-19T03:12:46;13.70;99.90
52531;DHT22;38441;52.894;6.040;2023-09-19T03:15:12;13.70;99.90
52531;DHT22;38441;52.894;6.040;2023-09-19T03:17:43;13.70;99.90
52531;DHT22;38441;52.894;6.040;2023-09-19T03:20:09;13.70;99.90
52531;DHT22;38441;52.894;6.040;2023-09-19T03:22:37;13.70;99.90
52531;DHT22;38441;52.894;6.040;2023-09-19T03:25:03;13.70;99.90
52531;DHT22;38441;52.894;6.040;2023-09-19T03:27:34;13.70;99.90
52531;DHT22;38441;52.894;6.040;2023-09-19T03:30:00;13.60;99.90
52531;DHT22;38441;52.894;6.040;2023-09-19T03:32:25;13.60;99.90
52531;DHT22;38441;52.894;6.040;2023-09-19T03:34:51;13.60;99.90
52531;DHT22;38441;52.894;6.040;2023-09-19T03:37:17;13.70;99.90
52531;DHT22;38441;52.894;6.040;2023-09-19T03:39:43;13.70;99.90
52531;DHT22;38441;52.894;6.040;2023-09-19T03:42:09;13.60;99.90
52531;DHT22;38441;52.894;6.040;2023-09-19T03:44:35;13.60;99.90
52531;DHT22;38441;52.894;6.040;2023-09-19T03:47:00;13.60;99.90
52531;DHT22;38441;52.894;6.040;2023-09-19T03:49:26;13.50;99.90
52531;DHT22;38441;52.894;6.040;2023-09-19T03:51:51;13.60;99.90
52531;DHT22;38441;52.894;6.040;2023-09-19T03:54:18;13.80;99.90
52531;DHT22;38441;52.894;6.040;2023-09-19T03:56:44;13.80;99.90
52531;DHT22;38441;52.894;6.040;2023-09-19T03:59:11;13.80;99.90
52531;DHT22;38441;52.894;6.040;2023-09-19T04:01:37;13.70;99.90
52531;DHT22;38441;52.894;6.040;2023-09-19T04:04:03;13.60;99.90
52531;DHT22;38441;52.894;6.040;2023-09-19T04:06:35;13.90;99.90
52531;DHT22;38441;52.894;6.040;2023-09-19T04:09:02;13.70;99.90
52531;DHT22;38441;52.894;6.040;2023-09-19T04:11:29;14.10;99.90
52531;DHT22;38441;52.894;6.040;2023-09-19T04:13:55;13.90;99.90
52531;DHT22;38441;52.894;6.040;2023-09-19T04:16:20;13.90;99.90
52531;DHT22;38441;52.894;6.040;2023-09-19T04:18:46;13.70;99.90
52531;DHT22;38441;52.894;6.040;2023-09-19T04:21:12;14.00;99.90
52531;DHT22;38441;52.894;6.040;2023-09-19T04:23:37;13.90;99.90
52531;DHT22;38441;52.894;6.040;2023-09-19T04:26:03;14.00;99.90
52531;DHT22;38441;52.894;6.040;2023-09-19T04:28:31;13.90;99.90
52531;DHT22;38441;52.894;6.040;2023-09-19T04:31:00;13.70;99.90
52531;DHT22;38441;52.894;6.040;2023-09-19T04:33:26;14.00;99.90
52531;DHT22;38441;52.894;6.040;2023-09-19T04:35:55;13.90;99.90
52531;DHT22;38441;52.894;6.040;2023-09-19T04:38:21;13.90;99.90
52531;DHT22;38441;52.894;6.040;2023-09-19T04:40:47;13.70;99.90
52531;DHT22;38441;52.894;6.040;2023-09-19T04:43:13;13.70;99.90
52531;DHT22;38441;52.894;6.040;2023-09-19T04:45:39;13.90;99.90
52531;DHT22;38441;52.894;6.040;2023-09-19T04:48:07;13.60;99.90
52531;DHT22;38441;52.894;6.040;2023-09-19T04:50:36;13.80;99.90
52531;DHT22;38441;52.894;6.040;2023-09-19T04:53:02;13.80;99.90
52531;DHT22;38441;52.894;6.040;2023-09-19T04:55:28;13.80;99.90
52531;DHT22;38441;52.894;6.040;2023-09-19T04:57:56;13.70;99.90
52531;DHT22;38441;52.894;6.040;2023-09-19T05:00:22;13.80;99.90
52531;DHT22;38441;52.894;6.040;2023-09-19T05:02:56;13.70;99.90
52531;DHT22;38441;52.894;6.040;2023-09-19T05:05:22;13.80;99.90
52531;DHT22;38441;52.894;6.040;2023-09-19T05:07:49;13.50;99.90
52531;DHT22;38441;52.894;6.040;2023-09-19T05:10:16;13.70;99.90
52531;DHT22;38441;52.894;6.040;2023-09-19T05:12:44;13.80;99.90
52531;DHT22;38441;52.894;6.040;2023-09-19T05:15:13;13.60;99.90
52531;DHT22;38441;52.894;6.040;2023-09-19T05:17:40;13.70;99.90
52531;DHT22;38441;52.894;6.040;2023-09-19T05:20:06;13.50;99.90
52531;DHT22;38441;52.894;6.040;2023-09-19T05:22:59;13.80;99.90
52531;DHT22;38441;52.894;6.040;2023-09-19T05:25:29;13.80;99.90
52531;DHT22;38441;52.894;6.040;2023-09-19T05:28:15;13.70;99.90
52531;DHT22;38441;52.894;6.040;2023-09-19T05:30:41;13.80;99.90
52531;DHT22;38441;52.894;6.040;2023-09-19T05:33:08;13.50;99.90
52531;DHT22;38441;52.894;6.040;2023-09-19T05:35:35;13.60;99.90
52531;DHT22;38441;52.894;6.040;2023-09-19T05:38:05;13.60;99.90
52531;DHT22;38441;52.894;6.040;2023-09-19T05:40:34;13.60;99.90
52531;DHT22;38441;52.894;6.040;2023-09-19T05:43:00;13.70;99.90
52531;DHT22;38441;52.894;6.040;2023-09-19T05:45:26;13.50;99.90
52531;DHT22;38441;52.894;6.040;2023-09-19T05:47:53;13.70;99.90
52531;DHT22;38441;52.894;6.040;2023-09-19T05:50:29;13.60;99.90
52531;DHT22;38441;52.894;6.040;2023-09-19T05:52:55;13.70;99.90
52531;DHT22;38441;52.894;6.040;2023-09-19T05:55:23;13.50;99.90
52531;DHT22;38441;52.894;6.040;2023-09-19T05:57:53;13.60;99.90
52531;DHT22;38441;52.894;6.040;2023-09-19T06:00:20;13.50;99.90
52531;DHT22;38441;52.894;6.040;2023-09-19T06:02:52;13.70;99.90
52531;DHT22;38441;52.894;6.040;2023-09-19T06:05:18;13.70;99.90
52531;DHT22;38441;52.894;6.040;2023-09-19T06:07:44;13.70;99.90
52531;DHT22;38441;52.894;6.040;2023-09-19T06:10:09;13.70;99.90
52531;DHT22;38441;52.894;6.040;2023-09-19T06:12:45;13.60;99.90
52531;DHT22;38441;52.894;6.040;2023-09-19T06:15:11;13.60;99.90
52531;DHT22;38441;52.894;6.040;2023-09-19T06:17:55;13.80;99.90
52531;DHT22;38441;52.894;6.040;2023-09-19T06:20:21;14.00;99.90
52531;DHT22;38441;52.894;6.040;2023-09-19T06:22:48;13.90;99.90
52531;DHT22;38441;52.894;6.040;2023-09-19T06:25:15;13.70;99.90
52531;DHT22;38441;52.894;6.040;2023-09-19T06:27:51;13.90;99.90
52531;DHT22;38441;52.894;6.040;2023-09-19T06:30:23;13.80;99.90
52531;DHT22;38441;52.894;6.040;2023-09-19T06:32:49;14.00;99.90
52531;DHT22;38441;52.894;6.040;2023-09-19T06:35:16;13.80;99.90
52531;DHT22;38441;52.894;6.040;2023-09-19T06:37:42;13.90;99.90
52531;DHT22;38441;52.894;6.040;2023-09-19T06:40:10;13.90;99.90
52531;DHT22;38441;52.894;6.040;2023-09-19T06:42:41;13.90;99.90
52531;DHT22;38441;52.894;6.040;2023-09-19T06:45:07;14.00;99.90
52531;DHT22;38441;52.894;6.040;2023-09-19T06:47:33;13.90;99.90
52531;DHT22;38441;52.894;6.040;2023-09-19T06:49:59;14.00;99.90
52531;DHT22;38441;52.894;6.040;2023-09-19T06:52:24;13.90;99.90
52531;DHT22;38441;52.894;6.040;2023-09-19T06:54:53;14.00;99.90
52531;DHT22;38441;52.894;6.040;2023-09-19T06:57:18;13.90;99.90
52531;DHT22;38441;52.894;6.040;2023-09-19T06:59:45;14.20;99.90
52531;DHT22;38441;52.894;6.040;2023-09-19T07:02:11;14.10;99.90
52531;DHT22;38441;52.894;6.040;2023-09-19T07:04:37;14.40;99.90
52531;DHT22;38441;52.894;6.040;2023-09-19T07:07:02;14.10;99.90
52531;DHT22;38441;52.894;6.040;2023-09-19T07:09:29;14.20;99.90
52531;DHT22;38441;52.894;6.040;2023-09-19T07:11:54;14.40;99.90
52531;DHT22;38441;52.894;6.040;2023-09-19T07:14:20;14.30;99.90
52531;DHT22;38441;52.894;6.040;2023-09-19T07:16:46;14.30;99.90
52531;DHT22;38441;52.894;6.040;2023-09-19T07:19:13;14.20;99.90
52531;DHT22;38441;52.894;6.040;2023-09-19T07:21:40;14.30;99.90
52531;DHT22;38441;52.894;6.040;2023-09-19T07:24:06;14.30;99.90
52531;DHT22;38441;52.894;6.040;2023-09-19T07:26:33;14.30;99.90
52531;DHT22;38441;52.894;6.040;2023-09-19T07:28:59;14.40;99.90
52531;DHT22;38441;52.894;6.040;2023-09-19T07:31:27;14.50;99.90
52531;DHT22;38441;52.894;6.040;2023-09-19T07:33:54;14.30;99.90
52531;DHT22;38441;52.894;6.040;2023-09-19T07:36:19;14.50;99.90
52531;DHT22;38441;52.894;6.040;2023-09-19T07:38:45;14.50;99.90
52531;DHT22;38441;52.894;6.040;2023-09-19T07:41:11;14.60;99.90
52531;DHT22;38441;52.894;6.040;2023-09-19T07:43:37;14.60;99.90
52531;DHT22;38441;52.894;6.040;2023-09-19T07:46:06;14.60;99.90
52531;DHT22;38441;52.894;6.040;2023-09-19T07:48:33;14.70;99.90
52531;DHT22;38441;52.894;6.040;2023-09-19T07:51:04;14.80;99.90
52531;DHT22;38441;52.894;6.040;2023-09-19T07:53:30;14.80;99.90
52531;DHT22;38441;52.894;6.040;2023-09-19T07:56:03;14.70;99.90
52531;DHT22;38441;52.894;6.040;2023-09-19T07:58:29;14.70;99.90
52531;DHT22;38441;52.894;6.040;2023-09-19T08:00:54;15.00;99.90
52531;DHT22;38441;52.894;6.040;2023-09-19T08:03:20;14.80;99.90
52531;DHT22;38441;52.894;6.040;2023-09-19T08:05:46;15.00;99.90
52531;DHT22;38441;52.894;6.040;2023-09-19T08:08:13;14.90;99.90
52531;DHT22;38441;52.894;6.040;2023-09-19T08:10:40;15.00;99.90
52531;DHT22;38441;52.894;6.040;2023-09-19T08:13:07;15.10;99.90
52531;DHT22;38441;52.894;6.040;2023-09-19T08:15:43;14.90;99.90
52531;DHT22;38441;52.894;6.040;2023-09-19T08:18:13;15.10;99.90
52531;DHT22;38441;52.894;6.040;2023-09-19T08:20:39;15.10;99.90
52531;DHT22;38441;52.894;6.040;2023-09-19T08:23:08;15.40;99.90
52531;DHT22;38441;52.894;6.040;2023-09-19T08:25:34;15.20;99.90
52531;DHT22;38441;52.894;6.040;2023-09-19T08:28:00;15.40;99.90
52531;DHT22;38441;52.894;6.040;2023-09-19T08:30:27;15.50;99.90
52531;DHT22;38441;52.894;6.040;2023-09-19T08:33:01;15.60;99.90
52531;DHT22;38441;52.894;6.040;2023-09-19T08:35:28;15.50;99.90
52531;DHT22;38441;52.894;6.040;2023-09-19T08:37:53;15.60;99.90
52531;DHT22;38441;52.894;6.040;2023-09-19T08:40:21;15.60;99.90
52531;DHT22;38441;52.894;6.040;2023-09-19T08:42:56;15.70;99.90
52531;DHT22;38441;52.894;6.040;2023-09-19T08:45:23;15.60;99.90
52531;DHT22;38441;52.894;6.040;2023-09-19T08:50:54;15.70;99.90
52531;DHT22;38441;52.894;6.040;2023-09-19T08:55:59;15.60;99.90
52531;DHT22;38441;52.894;6.040;2023-09-19T08:58:31;15.90;99.90
52531;DHT22;38441;52.894;6.040;2023-09-19T09:01:00;15.90;99.90
52531;DHT22;38441;52.894;6.040;2023-09-19T09:03:31;16.10;99.90
52531;DHT22;38441;52.894;6.040;2023-09-19T09:05:57;16.10;99.90
52531;DHT22;38441;52.894;6.040;2023-09-19T09:08:24;16.20;99.90
52531;DHT22;38441;52.894;6.040;2023-09-19T09:10:51;16.30;99.90
52531;DHT22;38441;52.894;6.040;2023-09-19T09:13:17;16.50;99.90
52531;DHT22;38441;52.894;6.040;2023-09-19T09:15:43;16.50;99.90
52531;DHT22;38441;52.894;6.040;2023-09-19T09:18:10;16.50;99.90
52531;DHT22;38441;52.894;6.040;2023-09-19T09:20:36;16.60;99.90
52531;DHT22;38441;52.894;6.040;2023-09-19T09:23:01;16.50;99.90
52531;DHT22;38441;52.894;6.040;2023-09-19T09:25:51;16.50;99.90
52531;DHT22;38441;52.894;6.040;2023-09-19T09:28:24;16.70;99.90
52531;DHT22;38441;52.894;6.040;2023-09-19T09:30:50;16.70;99.90
52531;DHT22;38441;52.894;6.040;2023-09-19T09:33:16;16.80;99.90
52531;DHT22;38441;52.894;6.040;2023-09-19T09:35:59;16.80;99.90
52531;DHT22;38441;52.894;6.040;2023-09-19T09:38:46;16.80;99.90
52531;DHT22;38441;52.894;6.040;2023-09-19T09:41:15;17.00;99.90
52531;DHT22;38441;52.894;6.040;2023-09-19T09:43:53;17.00;99.90
52531;DHT22;38441;52.894;6.040;2023-09-19T09:46:20;17.10;99.90
52531;DHT22;38441;52.894;6.040;2023-09-19T09:49:03;17.20;99.90
52531;DHT22;38441;52.894;6.040;2023-09-19T09:52:04;17.30;99.90
52531;DHT22;38441;52.894;6.040;2023-09-19T09:54:35;17.30;99.90
52531;DHT22;38441;52.894;6.040;2023-09-19T09:57:08;17.40;99.90
52531;DHT22;38441;52.894;6.040;2023-09-19T09:59:53;17.40;99.90
52531;DHT22;38441;52.894;6.040;2023-09-19T10:02:29;17.70;99.90
52531;DHT22;38441;52.894;6.040;2023-09-19T10:04:56;17.60;99.90
52531;DHT22;38441;52.894;6.040;2023-09-19T10:07:35;17.60;99.90
52531;DHT22;38441;52.894;6.040;2023-09-19T10:10:04;17.40;99.90
52531;DHT22;38441;52.894;6.040;2023-09-19T10:12:58;17.40;99.90
52531;DHT22;38441;52.894;6.040;2023-09-19T10:15:32;17.30;99.90
52531;DHT22;38441;52.894;6.040;2023-09-19T10:18:00;17.40;99.90
52531;DHT22;38441;52.894;6.040;2023-09-19T10:20:28;17.30;99.90
52531;DHT22;38441;52.894;6.040;2023-09-19T10:23:09;17.30;99.90
52531;DHT22;38441;52.894;6.040;2023-09-19T10:25:43;17.00;99.90
52531;DHT22;38441;52.894;6.040;2023-09-19T10:28:12;17.20;99.90
52531;DHT22;38441;52.894;6.040;2023-09-19T10:30:42;17.20;99.90
52531;DHT22;38441;52.894;6.040;2023-09-19T10:33:14;17.30;99.90
52531;DHT22;38441;52.894;6.040;2023-09-19T10:35:45;17.40;99.90
52531;DHT22;38441;52.894;6.040;2023-09-19T10:38:15;17.50;99.90
52531;DHT22;38441;52.894;6.040;2023-09-19T10:40:44;17.50;99.90
52531;DHT22;38441;52.894;6.040;2023-09-19T10:43:16;17.60;99.90
52531;DHT22;38441;52.894;6.040;2023-09-19T10:45:49;17.50;99.90
52531;DHT22;38441;52.894;6.040;2023-09-19T10:48:18;17.70;99.90
52531;DHT22;38441;52.894;6.040;2023-09-19T10:51:13;17.70;99.90
52531;DHT22;38441;52.894;6.040;2023-09-19T10:53:52;17.80;99.90
52531;DHT22;38441;52.894;6.040;2023-09-19T10:56:24;17.90;99.90
52531;DHT22;38441;52.894;6.040;2023-09-19T10:59:08;17.70;99.90
52531;DHT22;38441;52.894;6.040;2023-09-19T11:01:46;17.40;99.90
52531;DHT22;38441;52.894;6.040;2023-09-19T11:04:24;17.20;99.90
52531;DHT22;38441;52.894;6.040;2023-09-19T11:07:06;17.40;99.90
52531;DHT22;38441;52.894;6.040;2023-09-19T11:09:51;17.50;99.90
52531;DHT22;38441;52.894;6.040;2023-09-19T11:15:07;17.70;99.90
52531;DHT22;38441;52.894;6.040;2023-09-19T11:17:38;17.60;99.90
52531;DHT22;38441;52.894;6.040;2023-09-19T11:25:45;17.80;99.90
52531;DHT22;38441;52.894;6.040;2023-09-19T11:28:27;17.90;99.90
52531;DHT22;38441;52.894;6.040;2023-09-19T11:30:59;17.80;99.90
52531;DHT22;38441;52.894;6.040;2023-09-19T11:33:47;17.70;99.90
52531;DHT22;38441;52.894;6.040;2023-09-19T11:36:18;17.50;99.90
52531;DHT22;38441;52.894;6.040;2023-09-19T11:44:30;17.50;99.90
52531;DHT22;38441;52.894;6.040;2023-09-19T11:46:51;17.30;99.90
52531;DHT22;38441;52.894;6.040;2023-09-19T11:49:34;17.50;99.90
52531;DHT22;38441;52.894;6.040;2023-09-19T11:52:04;17.70;99.90
52531;DHT22;38441;52.894;6.040;2023-09-19T15:55:26;16.80;99.90
52531;DHT22;38441;52.894;6.040;2023-09-19T15:57:52;16.90;99.90
52531;DHT22;38441;52.894;6.040;2023-09-19T16:00:21;16.60;99.90
52531;DHT22;38441;52.894;6.040;2023-09-19T16:02:47;16.80;99.90
